Tempur Sealy Price to Book Ratio 2010-2022 | TPX

Historical price to book ratio values for Tempur Sealy (TPX) over the last 10 years. The current price to book ratio for Tempur Sealy as of May 20, 2022 is 0.00.

Please refer to the Stock Price Adjustment Guide for more information on our historical prices.

Tempur Sealy Price/Book Ratio Historical Data
Date Stock Price Book Value per Share Price to Book Ratio
2022-05-20 24.85 0.00
2022-03-31 27.81 $-0.57 -48.79
2021-12-31 46.68 $1.53 30.61
2021-09-30 45.97 $1.88 24.45
2021-06-30 38.74 $2.04 18.95
2021-03-31 36.07 $1.61 22.42
2020-12-31 26.58 $2.46 10.79
2020-09-30 21.95 $2.17 10.13
2020-06-30 17.71 $1.21 14.61
2020-03-31 10.76 $1.01 10.63
2019-12-31 21.43 $1.73 12.41
2019-09-30 19.00 $1.55 12.24
2019-06-30 18.06 $1.42 12.75
2019-03-31 14.19 $1.16 12.25
2018-12-31 10.19 $1.00 10.21
2018-09-30 13.02 $0.96 13.55
2018-06-30 11.83 $0.73 16.30
2018-03-31 11.15 $0.66 17.01
2017-12-31 15.43 $0.52 29.74
2017-09-30 15.88 $0.39 40.88
2017-06-30 13.14 $0.10 130.11
2017-03-31 11.44 $-0.08 -138.44
2016-12-31 16.81 $-0.19 -87.26
2016-09-30 13.97 $0.65 21.38
2016-06-30 13.62 $0.67 20.20
2016-03-31 14.96 $1.04 14.45
2015-12-31 17.34 $1.16 14.92
2015-09-30 17.58 $1.20 14.62
2015-06-30 16.22 $1.02 15.89
2015-03-31 14.21 $0.80 17.84
2014-12-31 13.52 $0.83 16.24
2014-09-30 13.83 $0.71 19.40
2014-06-30 14.69 $0.64 22.96
2014-03-31 12.47 $0.62 20.02
2013-12-31 13.28 $0.49 27.14
2013-09-30 10.82 $0.34 31.73
2013-06-30 10.81 $0.11 97.52
2013-03-31 12.22 $0.11 107.63
2012-12-31 7.75 $0.09 82.98
2012-09-30 7.36 $-0.05 -140.94
2012-06-30 5.76 $-0.05 -112.88
2012-03-31 20.78 $0.40 52.58
2011-12-31 12.93 $0.12 107.12
2011-09-30 12.95 $0.38 34.35
2011-06-30 16.69 $0.46 36.14
2011-03-31 12.47 $0.54 23.21
2010-12-31 9.86 $0.46 21.43
2010-09-30 7.63 $0.25 30.66
2010-06-30 7.57 $0.20 38.19
2010-03-31 7.42 $0.39 18.99
2009-12-31 5.82 $0.57 10.14
2009-09-30 4.66 $0.47 9.94
2009-06-30 3.22 $0.36 8.83
2009-03-31 1.80 $0.28 6.39
Sector Industry Market Cap Revenue
Retail/Wholesale Retail - Home Furnishings $4.362B $4.931B
Tempur Sealy International, Inc. is involved in the development, manufacturing and marketing of bedding products primarily in North America and internationally. It provides mattresses, adjustable bases, pillows and other sleep and relaxation products. The company's brand portfolio includes Tempur(R), Tempur-Pedic(R), Sealy(R), Sealy Posturepedic(R), Optimum(TM) and Stearns & Foster(R). Tempur Sealy International, Inc., formerly known as Tempur-Pedic International Inc., is headquartered in Lexington, Kentucky.
Stock Name Country Market Cap PE Ratio
Fortune Brands Home & Security (FBHS) United States $8.734B 11.76
Williams-Sonoma (WSM) United States $7.574B 7.25
RH (RH) United States $5.831B 10.31
Ethan Allen Interiors (ETD) United States $0.552B 6.37
Haverty Furniture (HVT.A) $0.475B 5.63
Haverty Furniture (HVT) United States $0.454B 5.37
LL Flooring Holdings (LL) United States $0.326B 9.28
At Home Group (HOME) United States $0.000B 0.00